Time;durP1;ratioP1;P1;durP2;ratioP2;P2;SDS_P1;SDS_P2;PMS_P1;PMS_P2;Temp;Humidity;BMP_temperature;BMP_pressure;BME280_temperature;BME280_humidity;BME280_pressure;Samples;Min_cycle;Max_cycle;Signal;HPM_P1;HPM_P2
2023/09/24 00:02:18;;;;;;;2.77;1.40;;;;;;;;;;5115058;28;20950;-75
2023/09/24 00:04:45;;;;;;;4.93;1.70;;;;;;;;;;5114990;28;20525;-74
2023/09/24 00:07:14;;;;;;;3.70;1.60;;;;;;;;;;5114786;28;20519;-75
2023/09/24 00:09:41;;;;;;;3.87;1.70;;;;;;;;;;5114888;27;21002;-75
2023/09/24 00:12:09;;;;;;;2.63;1.30;;;;;;;;;;5113908;28;20434;-75
2023/09/24 00:14:36;;;;;;;2.20;1.30;;;;;;;;;;5114907;28;20442;-75
2023/09/24 00:17:04;;;;;;;5.67;1.83;;;;;;;;;;5114945;28;20479;-75
2023/09/24 00:19:33;;;;;;;2.70;1.60;;;;;;;;;;5114341;28;20447;-75
2023/09/24 00:22:02;;;;;;;3.67;1.97;;;;;;;;;;5114774;28;20438;-75
2023/09/24 00:24:29;;;;;;;4.90;2.10;;;;;;;;;;5114753;28;20435;-75
2023/09/24 00:26:57;;;;;;;3.80;1.90;;;;;;;;;;5114629;28;20443;-75
2023/09/24 00:29:24;;;;;;;3.70;1.63;;;;;;;;;;5114773;28;20447;-74
2023/09/24 00:31:51;;;;;;;6.73;1.80;;;;;;;;;;5114656;28;20462;-74
2023/09/24 00:34:19;;;;;;;2.83;1.67;;;;;;;;;;5114392;28;20470;-74
2023/09/24 00:36:49;;;;;;;3.70;1.70;;;;;;;;;;5114435;28;20904;-74
2023/09/24 00:39:16;;;;;;;3.00;2.00;;;;;;;;;;5114049;28;20431;-74
2023/09/24 00:41:45;;;;;;;3.80;1.90;;;;;;;;;;5114657;28;20447;-74
2023/09/24 00:44:15;;;;;;;5.30;2.40;;;;;;;;;;5114180;28;20933;-74
2023/09/24 00:46:44;;;;;;;3.80;1.87;;;;;;;;;;5114409;28;20443;-75
2023/09/24 00:49:13;;;;;;;3.60;1.73;;;;;;;;;;5114346;27;20462;-75
2023/09/24 00:51:41;;;;;;;2.73;1.47;;;;;;;;;;5114396;28;20521;-75
2023/09/24 00:54:10;;;;;;;3.87;1.93;;;;;;;;;;5114322;28;20470;-74
2023/09/24 00:56:38;;;;;;;3.17;1.57;;;;;;;;;;5113817;28;20437;-74
2023/09/24 00:59:08;;;;;;;3.07;1.60;;;;;;;;;;5114091;28;20439;-74
2023/09/24 01:01:36;;;;;;;5.57;1.40;;;;;;;;;;5114167;28;20435;-74
2023/09/24 01:04:05;;;;;;;3.27;1.50;;;;;;;;;;5114431;28;20435;-74
2023/09/24 01:06:33;;;;;;;2.80;1.67;;;;;;;;;;5113716;28;20521;-74
2023/09/24 01:09:03;;;;;;;3.33;1.90;;;;;;;;;;5114135;28;20771;-74
2023/09/24 01:11:33;;;;;;;3.90;2.03;;;;;;;;;;5114005;28;20473;-75
2023/09/24 01:14:01;;;;;;;3.27;1.33;;;;;;;;;;5113620;28;20466;-74
2023/09/24 01:16:29;;;;;;;2.87;1.30;;;;;;;;;;5114952;28;20772;-74
2023/09/24 01:18:56;;;;;;;4.27;1.80;;;;;;;;;;5119136;28;20825;-75
2023/09/24 01:21:25;;;;;;;2.43;1.10;;;;;;;;;;5134268;28;20422;-74
2023/09/24 01:23:55;;;;;;;3.07;1.67;;;;;;;;;;5136153;27;20442;-75
2023/09/24 01:26:24;;;;;;;3.27;1.70;;;;;;;;;;5138794;27;20440;-74
2023/09/24 01:28:51;;;;;;;4.33;1.53;;;;;;;;;;5138186;27;20430;-75
2023/09/24 01:31:19;;;;;;;2.53;1.53;;;;;;;;;;5138747;27;20429;-74
2023/09/24 01:33:47;;;;;;;3.13;2.30;;;;;;;;;;5138547;27;20476;-75
2023/09/24 01:36:15;;;;;;;3.93;2.47;;;;;;;;;;5138642;27;20434;-75
2023/09/24 01:38:45;;;;;;;4.57;1.97;;;;;;;;;;5135298;27;20477;-75
2023/09/24 01:41:14;;;;;;;6.37;1.90;;;;;;;;;;5117724;27;20480;-74
2023/09/24 01:43:42;;;;;;;4.43;1.80;;;;;;;;;;5118165;28;20451;-75
2023/09/24 01:46:13;;;;;;;2.57;1.47;;;;;;;;;;5117541;28;20953;-74
2023/09/24 01:48:40;;;;;;;2.70;1.60;;;;;;;;;;5117262;28;20425;-74
2023/09/24 01:51:08;;;;;;;2.50;1.20;;;;;;;;;;5117484;28;20476;-75
2023/09/24 01:53:36;;;;;;;3.77;1.97;;;;;;;;;;5117825;28;20576;-75
2023/09/24 01:56:04;;;;;;;3.47;1.73;;;;;;;;;;5117635;28;20442;-75
2023/09/24 01:58:33;;;;;;;3.17;1.83;;;;;;;;;;5117227;27;20506;-74
2023/09/24 02:01:02;;;;;;;2.87;1.30;;;;;;;;;;5117727;28;20462;-74
2023/09/24 02:03:29;;;;;;;2.63;1.30;;;;;;;;;;5117713;28;20442;-75
2023/09/24 02:05:57;;;;;;;3.93;1.40;;;;;;;;;;5117176;28;20430;-75
2023/09/24 02:08:24;;;;;;;2.80;1.47;;;;;;;;;;5117923;28;20474;-75
2023/09/24 02:10:52;;;;;;;3.23;1.50;;;;;;;;;;5137429;27;20529;-75
2023/09/24 02:13:20;;;;;;;2.70;1.77;;;;;;;;;;5137493;27;20469;-74
2023/09/24 02:15:50;;;;;;;3.10;1.53;;;;;;;;;;5137849;27;20434;-75
2023/09/24 02:18:17;;;;;;;3.07;1.50;;;;;;;;;;5137743;27;20441;-75
2023/09/24 02:20:47;;;;;;;9.57;2.80;;;;;;;;;;5136987;27;20453;-74
2023/09/24 02:23:15;;;;;;;5.00;2.53;;;;;;;;;;5137761;27;20428;-74
2023/09/24 02:25:44;;;;;;;6.07;2.57;;;;;;;;;;5137656;27;20448;-75
2023/09/24 02:28:12;;;;;;;5.23;2.40;;;;;;;;;;5138053;27;20461;-74
2023/09/24 02:30:40;;;;;;;3.07;1.80;;;;;;;;;;5134525;27;20437;-75
2023/09/24 02:33:09;;;;;;;5.93;2.13;;;;;;;;;;5116316;27;20559;-75
2023/09/24 02:35:36;;;;;;;3.03;1.80;;;27.80;30.00;;;;;;5116111;28;20452;-75
2023/09/24 02:38:05;;;;;;;4.70;1.90;;;12.70;92.90;;;;;;5116747;27;20196;-75
2023/09/24 02:40:32;;;;;;;3.03;1.73;;;12.20;92.20;;;;;;5116409;27;20433;-74
2023/09/24 02:43:00;;;;;;;3.70;2.23;;;12.10;92.20;;;;;;5096347;28;20446;-74
2023/09/24 02:45:29;;;;;;;4.83;2.70;;;12.00;92.20;;;;;;5096426;28;20431;-75
2023/09/24 02:47:56;;;;;;;5.20;2.45;;;12.00;92.40;;;;;;5096350;28;20439;-75
2023/09/24 02:50:27;;;;;;;4.90;2.97;;;12.00;92.70;;;;;;5117433;27;20184;-74
2023/09/24 02:52:56;;;;;;;6.17;2.63;;;11.90;92.80;;;;;;5116139;27;20997;-75
2023/09/24 02:55:24;;;;;;;5.30;2.93;;;;;;;;;;5116276;28;20477;-75
2023/09/24 02:57:51;;;;;;;8.68;2.50;;;;;;;;;;5116633;28;20503;-74
2023/09/24 03:00:20;;;;;;;3.60;2.65;;;;;;;;;;5117620;27;20192;-75
2023/09/24 03:02:48;;;;;;;2.90;1.60;;;;;;;;;;5136910;27;20188;-74
2023/09/24 03:05:20;;;;;;;4.90;2.20;;;;;;;;;;5136446;27;20287;-74
2023/09/24 03:07:49;;;;;;;4.13;1.80;;;;;;;;;;5137023;27;20845;-75
2023/09/24 03:10:17;;;;;;;3.55;2.08;;;;;;;;;;5135123;27;20818;-75
2023/09/24 03:12:44;;;;;;;5.70;2.13;;;;;;;;;;5135748;27;20253;-74
2023/09/24 03:15:11;;;;;;;3.10;1.83;;;;;;;;;;5136535;27;20564;-75
2023/09/24 03:17:39;;;;;;;4.20;3.10;;;;;;;;;;5136644;27;20457;-74
2023/09/24 03:20:15;;;;;;;15.70;3.13;;;;;;;;;;5136142;27;20227;-75
2023/09/24 03:22:43;;;;;;;4.50;2.60;;;;;;;;;;5095676;28;20423;-74
2023/09/24 03:25:12;;;;;;;3.03;1.70;;;;;;;;;;5095602;28;20439;-75
2023/09/24 03:27:40;;;;;;;6.15;2.20;;;;;;;;;;5095396;28;20485;-74
2023/09/24 03:30:14;;;;;;;3.07;1.43;;;;;;;;;;5095620;28;20196;-75
2023/09/24 03:32:41;;;;;;;3.30;1.53;;;;;;;;;;5095530;28;20516;-75
2023/09/24 03:35:10;;;;;;;3.30;2.10;;;;;;;;;;5094885;28;20478;-74
2023/09/24 03:37:40;;;;;;;3.67;1.35;;;;;;;;;;5095314;28;20431;-75
2023/09/24 03:40:10;;;;;;;6.33;1.53;;;;;;;;;;5094946;28;20618;-74
2023/09/24 03:42:41;;;;;;;4.30;1.38;;;;;;;;;;5133803;27;20513;-75
2023/09/24 03:45:10;;;;;;;4.27;1.40;;;;;;;;;;5115125;28;20239;-74
2023/09/24 03:47:38;;;;;;;7.35;1.63;;;;;;;;;;5114032;28;20917;-74
2023/09/24 03:50:06;;;;;;;2.25;1.30;;;;;;;;;;5114974;28;20655;-75
2023/09/24 03:52:33;;;;;;;2.92;1.50;;;;;;;;;;5134283;27;20650;-75
2023/09/24 03:55:01;;;;;;;2.17;1.00;;;;;;;;;;5135483;27;20669;-75
2023/09/24 03:57:28;;;;;;;2.85;1.20;;;;;;;;;;5125111;27;20465;-75
2023/09/24 03:59:57;;;;;;;3.27;1.37;;;;;;;;;;5114953;28;20199;-75
2023/09/24 04:02:24;;;;;;;3.33;1.45;;;;;;;;;;5115113;28;20438;-74
2023/09/24 04:04:51;;;;;;;2.83;1.40;;;;;;;;;;5115060;28;20191;-75
2023/09/24 04:07:18;;;;;;;2.88;1.65;;;;;;;;;;5122877;27;20779;-74
2023/09/24 04:09:46;;;;;;;2.70;1.67;;;;;;;;;;5135780;27;20230;-75
2023/09/24 04:12:14;;;;;;;3.17;1.40;;;;;;;;;;5135602;27;20191;-75
2023/09/24 04:14:41;;;;;;;5.57;1.25;;;;;;;;;;5135116;27;20221;-74
2023/09/24 04:17:10;;;;;;;2.72;1.25;;;;;;;;;;5128617;27;20188;-74
2023/09/24 04:19:37;;;;;;;3.20;1.70;;;;;;;;;;5114488;28;20656;-75
2023/09/24 04:22:04;;;;;;;3.38;1.10;;;;;;;;;;5115105;28;20202;-75
2023/09/24 04:24:32;;;;;;;2.30;1.30;;;;;;;;;;5114835;28;20227;-75
2023/09/24 04:27:00;;;;;;;2.90;1.70;;;;;;;;;;5119440;27;20187;-75
2023/09/24 04:29:27;;;;;;;4.25;1.50;;;;;;;;;;5135265;27;20274;-74
2023/09/24 04:31:55;;;;;;;4.00;1.63;;;;;;;;;;5135234;27;20221;-75
2023/09/24 04:34:23;;;;;;;3.20;1.65;;;;;;;;;;5134627;27;20238;-75
2023/09/24 04:36:51;;;;;;;2.55;1.25;;;;;;;;;;5130830;27;20179;-74
2023/09/24 04:39:19;;;;;;;2.80;1.58;;;;;;;;;;5114204;28;20231;-75
2023/09/24 04:41:47;;;;;;;3.70;1.55;;;;;;;;;;5114469;28;20197;-75
2023/09/24 04:44:14;;;;;;;2.45;1.08;;;;;;;;;;5125967;27;20273;-74
2023/09/24 04:46:42;;;;;;;2.60;1.50;;;;;;;;;;5132133;27;20701;-74
2023/09/24 04:49:09;;;;;;;3.20;1.40;;;;;;;;;;5126068;27;20248;-74
2023/09/24 04:51:38;;;;;;;2.75;1.60;;;;;;;;;;5134623;27;20663;-74
2023/09/24 04:54:05;;;;;;;3.88;1.50;;;;;;;;;;5134796;27;20245;-75
2023/09/24 04:56:32;;;;;;;3.75;1.45;;;;;;;;;;5134860;27;20194;-75
2023/09/24 04:59:00;;;;;;;2.58;1.52;;;;;;;;;;5121278;27;20191;-75
2023/09/24 05:01:28;;;;;;;2.83;1.52;;;;;;;;;;5115140;27;20189;-75
2023/09/24 05:03:55;;;;;;;4.55;2.30;;;;;;;;;;5120395;27;20218;-75
2023/09/24 05:06:23;;;;;;;4.82;2.80;;;;;;;;;;5131015;27;20551;-73
2023/09/24 05:08:53;;;;;;;4.65;2.70;;;;;;;;;;5134468;27;20228;-75
2023/09/24 05:11:20;;;;;;;5.43;2.80;;;;;;;;;;5134203;27;20244;-74
2023/09/24 05:13:47;;;;;;;4.30;2.97;;;;;;;;;;5133553;28;20226;-75
2023/09/24 05:16:15;;;;;;;4.75;2.58;;;;;;;;;;5133849;28;20236;-74
2023/09/24 05:18:45;;;;;;;2.85;1.80;;;;;;;;;;5113935;28;20214;-75
2023/09/24 05:21:16;;;;;;;2.70;1.70;;;;;;;;;;5113337;28;20241;-75
2023/09/24 05:23:44;;;;;;;7.95;1.73;;;;;;;;;;5113695;28;20231;-75
2023/09/24 05:26:13;;;;;;;4.97;2.00;;;;;;;;;;5113397;28;20185;-74
2023/09/24 05:28:40;;;;;;;2.65;1.05;;;;;;;;;;5132846;28;20189;-75
2023/09/24 05:31:08;;;;;;;2.10;0.90;;;;;;;;;;5133894;28;20250;-75
2023/09/24 05:33:35;;;;;;;2.00;0.98;;;;;;;;;;5133817;28;20225;-74
2023/09/24 05:36:03;;;;;;;3.00;1.45;;;;;;;;;;5134149;27;20676;-75
2023/09/24 05:38:31;;;;;;;3.67;1.42;;;;;;;;;;5115703;28;20186;-75
2023/09/24 05:40:59;;;;;;;3.17;1.70;;;;;;;;;;5113576;28;20234;-74
2023/09/24 05:43:28;;;;;;;2.50;1.20;;;;;;;;;;5113660;28;20195;-75
2023/09/24 05:45:55;;;;;;;5.80;1.38;;;;;;;;;;5113601;28;20543;-74
2023/09/24 05:48:22;;;;;;;2.30;1.30;;;;;;;;;;5129090;28;20228;-75
2023/09/24 05:50:49;;;;;;;2.38;1.50;;;;;;;;;;5133585;28;20197;-75
2023/09/24 05:53:17;;;;;;;3.80;2.33;;;;;;;;;;5133669;28;20720;-74
2023/09/24 05:55:54;;;;;;;2.10;1.20;;;;;;;;;;5125789;28;20215;-75
2023/09/24 05:58:21;;;;;;;2.40;1.27;;;;;;;;;;5128457;28;20188;-74
2023/09/24 06:00:51;;;;;;;2.42;1.40;;;;;;;;;;5118718;28;20215;-75
2023/09/24 06:03:19;;;;;;;3.72;2.13;;;;;;;;;;5113015;28;20203;-75
2023/09/24 06:05:46;;;;;;;3.53;1.80;;;;;;;;;;5113334;28;20195;-74
2023/09/24 06:08:14;;;;;;;3.42;1.48;;;;;;;;;;5113074;28;20283;-74
2023/09/24 06:10:45;;;;;;;4.35;1.77;;;;;;;;;;5126288;27;20643;-75
2023/09/24 06:13:13;;;;;;;2.83;1.55;;;;;;;;;;5137649;27;20196;-74
2023/09/24 06:15:41;;;;;;;3.40;2.00;;;;;;;;;;5137102;27;20256;-74
2023/09/24 06:18:10;;;;;;;4.07;2.10;;;;;;;;;;5137650;27;20635;-75
2023/09/24 06:20:40;;;;;;;3.55;1.90;;;;;;;;;;5124823;27;20184;-77
2023/09/24 06:23:09;;;;;;;5.43;2.35;;;;;;;;;;5116700;28;20226;-76
2023/09/24 06:25:36;;;;;;;5.95;3.60;;;;;;;;;;5135338;27;20192;-76
2023/09/24 06:28:09;;;;;;;5.35;3.70;;;;;;;;;;5136995;27;20188;-74
2023/09/24 06:30:36;;;;;;;4.80;3.30;;;;;;;;;;5137024;27;20179;-75
2023/09/24 06:33:03;;;;;;;4.50;2.93;;;;;;;;;;5137211;27;20430;-75
2023/09/24 06:35:33;;;;;;;5.20;2.50;;;;;;;;;;5119730;27;20465;-74
2023/09/24 06:38:00;;;;;;;8.40;3.73;;;;;;;;;;5116387;28;20503;-74
2023/09/24 06:40:27;;;;;;;4.87;2.63;;;;;;;;;;5116463;28;20445;-75
2023/09/24 06:42:55;;;;;;;4.80;2.67;;;;;;;;;;5116315;28;20466;-75
2023/09/24 06:45:22;;;;;;;4.17;1.60;;;;;;;;;;5130983;27;20458;-75
2023/09/24 06:47:49;;;;;;;3.10;1.47;;;;;;;;;;5136522;27;20511;-75
2023/09/24 06:50:16;;;;;;;3.30;2.00;;;;;;;;;;5136521;27;20501;-75
2023/09/24 06:52:45;;;;;;;4.77;2.10;;;;;;;;;;5136921;27;20430;-74
2023/09/24 06:55:12;;;;;;;4.73;2.03;;;;;;;;;;5122461;27;20470;-75
2023/09/24 06:57:39;;;;;;;2.60;1.47;;;;;;;;;;5116271;28;20765;-75
2023/09/24 07:00:10;;;;;;;4.20;1.80;;;;;;;;;;5116238;28;20430;-75
2023/09/24 07:02:37;;;;;;;3.87;1.60;;;;;;;;;;5116288;28;20431;-75
2023/09/24 07:05:05;;;;;;;2.60;1.50;;;;;;;;;;5128161;27;20494;-75
2023/09/24 07:07:32;;;;;;;3.17;1.40;;;;;;;;;;5136517;27;20462;-75
2023/09/24 07:10:01;;;;;;;3.60;2.60;;;;;;;;;;5131253;27;20432;-75
2023/09/24 07:12:28;;;;;;;2.30;1.10;;;;;;;;;;5116285;28;20431;-75
2023/09/24 07:14:56;;;;;;;2.70;1.30;;;;;;;;;;5115497;28;20535;-75
2023/09/24 07:17:23;;;;;;;2.67;1.10;;;;;;;;;;5115562;28;20438;-75
2023/09/24 07:19:51;;;;;;;3.60;1.60;;;;;;;;;;5117611;27;20837;-75
2023/09/24 07:22:24;;;;;;;2.90;1.30;;;;;;;;;;5133561;27;20442;-75
2023/09/24 07:24:52;;;;;;;2.70;1.23;;;;;;;;;;5135730;27;20426;-75
2023/09/24 07:27:20;;;;;;;2.73;1.20;;;;;;;;;;5135309;27;20490;-75
2023/09/24 07:29:48;;;;;;;2.40;0.80;;;;;;;;;;5133388;27;20903;-75
2023/09/24 07:32:15;;;;;;;2.83;1.37;;;;;;;;;;5114704;28;20438;-75
2023/09/24 07:34:46;;;;;;;4.00;1.47;;;;;;;;;;5114533;28;20520;-75
2023/09/24 07:37:13;;;;;;;2.40;0.97;;;;;;;;;;5127971;27;20442;-75
2023/09/24 07:39:41;;;;;;;2.87;1.47;;;;;;;;;;5135224;27;20441;-75
2023/09/24 07:42:09;;;;;;;2.57;1.10;;;;;;;;;;5135297;27;20437;-76
2023/09/24 07:44:37;;;;;;;5.83;1.30;;;;;;;;;;5135336;27;20434;-76
2023/09/24 07:47:05;;;;;;;2.40;1.30;;;;;;;;;;5123932;27;20554;-75
2023/09/24 07:49:32;;;;;;;2.77;1.30;;;;;;;;;;5114203;28;20437;-76
2023/09/24 07:51:59;;;;;;;2.57;1.10;;;;;;;;;;5114542;28;20435;-76
2023/09/24 07:54:27;;;;;;;5.23;1.10;;;;;;;;;;5114242;28;20440;-76
2023/09/24 07:56:54;;;;;;;2.30;1.07;;;;;;;;;;5122654;27;20441;-76
2023/09/24 07:59:23;;;;;;;3.07;1.30;;;;;;;;;;5134637;27;20455;-76
2023/09/24 08:01:51;;;;;;;4.43;1.30;;;;;;;;;;5133980;27;20445;-75
2023/09/24 08:04:19;;;;;;;2.80;1.20;;;;;;;;;;5134121;27;20499;-76
2023/09/24 08:06:46;;;;;;;2.47;1.03;;;;;;;;;;5134837;27;20560;-75
2023/09/24 08:09:14;;;;;;;3.13;1.80;;;;;;;;;;5125424;27;20793;-76
2023/09/24 08:11:41;;;;;;;2.90;1.47;;;;;;;;;;5113987;28;20525;-75
2023/09/24 08:14:08;;;;;;;2.60;1.17;;;;;;;;;;5114198;28;20470;-75
2023/09/24 08:16:36;;;;;;;4.00;1.40;;;;;;;;;;5113989;28;20494;-75
2023/09/24 08:19:05;;;;;;;3.50;1.57;;;;;;;;;;5134107;27;20807;-75
2023/09/24 08:21:32;;;;;;;4.40;1.60;;;;;;;;;;5134484;27;20465;-76
2023/09/24 08:24:03;;;;;;;3.73;1.17;;;;;;;;;;5123745;27;20429;-75
2023/09/24 08:26:33;;;;;;;2.33;1.00;;;;;;;;;;5113662;28;20458;-75
2023/09/24 08:29:02;;;;;;;3.50;1.47;;;;;;;;;;5128475;27;20509;-75
2023/09/24 08:31:31;;;;;;;3.70;1.70;;;;;;;;;;5118045;27;20432;-76
2023/09/24 08:36:52;;;;;;;2.70;1.50;;;;;;;;;;5125207;27;20463;-75
2023/09/24 08:39:20;;;;;;;3.97;1.70;;;;;;;;;;5111021;28;20474;-76
2023/09/24 08:41:47;;;;;;;4.13;1.27;;;;;;;;;;5112035;28;20439;-76
2023/09/24 08:44:16;;;;;;;2.77;1.57;;;;;;;;;;5112857;28;20430;-76
2023/09/24 08:46:44;;;;;;;3.80;1.67;;;;;;;;;;5112572;28;20491;-75
2023/09/24 08:49:12;;;;;;;3.00;1.33;;;;;;;;;;5127560;27;20434;-75
2023/09/24 08:51:40;;;;;;;5.07;1.90;;;;;;;;;;5114542;27;20502;-75
2023/09/24 08:54:09;;;;;;;2.80;1.27;;;;;;;;;;5112760;28;20475;-76
2023/09/24 08:56:36;;;;;;;2.93;1.50;;;;;;;;;;5113375;28;20949;-75
2023/09/24 08:59:03;;;;;;;4.53;1.70;;;;;;;;;;5112973;28;20440;-75
2023/09/24 09:01:31;;;;;;;3.37;1.20;;;;;;;;;;5112700;28;20437;-75
2023/09/24 09:03:59;;;;;;;3.17;1.50;;;;;;;;;;5122711;27;20447;-75
2023/09/24 09:06:33;;;;;;;3.13;1.33;;;;;;;;;;5131476;27;20474;-74
2023/09/24 09:09:01;;;;;;;6.60;2.23;;;;;;;;;;5122746;27;20426;-75
2023/09/24 09:11:39;;;;;;;4.30;1.60;;;;;;;;;;5113429;28;20514;-75
2023/09/24 09:14:07;;;;;;;2.70;1.23;;;;;;;;;;5104903;28;20461;-75
2023/09/24 09:16:53;;;;;;;4.57;1.60;;;;;;;;;;5113222;28;20474;-75
2023/09/24 09:19:20;;;;;;;2.80;1.50;;;;;;;;;;5113176;28;20434;-75
2023/09/24 09:21:47;;;;;;;4.67;1.27;;;;;;;;;;5117047;28;20464;-75
2023/09/24 09:24:20;;;;;;;2.80;1.10;;;;;;;;;;5113219;28;20469;-76
2023/09/24 09:26:54;;;;;;;2.90;1.10;;;;;;;;;;5112833;28;20462;-75
2023/09/24 09:29:22;;;;;;;4.60;1.20;;;;;;;;;;5112717;28;20891;-75
2023/09/24 09:31:53;;;;;;;4.03;1.20;;;;;;;;;;5120777;28;20950;-75
2023/09/24 09:34:22;;;;;;;5.50;1.67;;;;;;;;;;5116727;27;20431;-75
2023/09/24 09:36:50;;;;;;;3.40;1.13;;;;;;;;;;5107816;28;20824;-75
2023/09/24 09:39:17;;;;;;;3.27;1.30;;;;;;;;;;5110625;28;21089;-75
2023/09/24 09:41:45;;;;;;;3.10;1.03;;;;;;;;;;5115265;28;20430;-75
2023/09/24 09:44:15;;;;;;;3.60;1.57;;;;;;;;;;5118885;28;20456;-75
2023/09/24 09:46:46;;;;;;;4.00;1.30;;;;;;;;;;5115720;28;20782;-76
2023/09/24 09:49:14;;;;;;;5.40;1.47;;;;;;;;;;5115709;28;20426;-76
2023/09/24 09:51:45;;;;;;;4.47;1.30;;;;;;;;;;5115555;28;20436;-76
2023/09/24 09:54:14;;;;;;;3.23;1.30;;;;;;;;;;5115853;28;20428;-75
2023/09/24 09:56:41;;;;;;;4.30;1.50;;;;;;;;;;5115613;28;20476;-75
2023/09/24 09:59:12;;;;;;;3.53;1.53;;;;;;;;;;5115693;28;20428;-75
2023/09/24 10:01:41;;;;;;;3.77;1.43;;;;;;;;;;5115813;28;20504;-75
2023/09/24 10:04:12;;;;;;;2.37;1.10;;;;;;;;;;5115382;28;20441;-75
2023/09/24 10:06:40;;;;;;;4.20;1.77;;;;;;;;;;5115539;28;20435;-75
2023/09/24 10:09:23;;;;;;;3.07;1.27;;;;;;;;;;5113691;28;20529;-76
2023/09/24 10:11:57;;;;;;;2.70;1.20;;;;;;;;;;5105550;28;20460;-76
2023/09/24 10:14:33;;;;;;;3.87;1.30;;;;;;;;;;5115767;28;20461;-75
2023/09/24 10:19:55;;;;;;;2.20;0.87;;;;;;;;;;5068192;27;1360121;-75
2023/09/24 10:22:30;;;;;;;4.70;1.10;;;;;;;;;;5097977;28;20197;-76
2023/09/24 10:24:58;;;;;;;3.80;1.40;;;;;;;;;;5098024;28;20530;-75
2023/09/24 10:27:26;;;;;;;2.80;0.97;;;;;;;;;;5095943;28;20890;-75
2023/09/24 10:30:09;;;;;;;2.90;1.27;;;;;;;;;;5098002;28;20558;-76
2023/09/24 10:32:46;;;;;;;3.00;1.13;;;;;;;;;;5096210;28;20438;-76
2023/09/24 10:35:15;;;;;;;3.87;1.17;;;;;;;;;;5099591;28;20435;-74
2023/09/24 10:38:00;;;;;;;4.40;1.70;;;;;;;;;;5096263;28;20431;-75
2023/09/24 10:40:28;;;;;;;2.33;1.00;;;;;;;;;;5097458;28;20435;-75
2023/09/24 10:43:17;;;;;;;3.67;1.10;;;;;;;;;;5094095;28;20453;-76
2023/09/24 10:45:45;;;;;;;3.13;1.23;;;;;;;;;;5098711;28;20452;-75
2023/09/24 10:48:13;;;;;;;2.70;1.20;;;;;;;;;;5098407;28;20435;-75
2023/09/24 10:50:43;;;;;;;2.93;0.90;;;;;;;;;;5101056;28;20446;-76
2023/09/24 10:53:10;;;;;;;3.30;1.10;;;;;;;;;;5097560;28;20814;-74
2023/09/24 10:55:40;;;;;;;2.93;1.07;;;;;;;;;;5098527;28;20427;-75
2023/09/24 10:58:12;;;;;;;2.73;0.90;;;;;;;;;;5100960;28;20485;-76
2023/09/24 11:00:41;;;;;;;4.53;1.47;;;;;;;;;;5097013;28;20466;-75
2023/09/24 11:03:09;;;;;;;3.50;1.30;;;;;;;;;;5100360;28;20811;-76
2023/09/24 11:05:37;;;;;;;3.73;1.40;;;;;;;;;;5103143;28;20438;-76
2023/09/24 11:08:09;;;;;;;2.67;1.07;;;;;;;;;;5092712;28;20443;-74
2023/09/24 11:10:37;;;;;;;2.37;1.20;;;;;;;;;;5101245;28;20431;-76
2023/09/24 11:13:08;;;;;;;2.80;1.30;;;;;;;;;;5093418;28;20447;-76
2023/09/24 11:15:38;;;;;;;2.20;0.80;;;;;;;;;;5100748;28;20431;-76
2023/09/24 11:18:06;;;;;;;2.40;1.00;;;;;;;;;;5093780;28;20570;-76
2023/09/24 11:20:34;;;;;;;2.63;0.90;;;;;;;;;;5098550;28;20794;-75
2023/09/24 11:23:09;;;;;;;3.17;1.30;;;;;;;;;;5095933;28;20466;-75
2023/09/24 11:25:39;;;;;;;2.80;1.00;;;;;;;;;;5096438;28;20519;-76
2023/09/24 11:28:07;;;;;;;2.80;0.93;;;;;;;;;;5098848;28;20450;-76
2023/09/24 11:30:41;;;;;;;2.60;1.27;;;;;;;;;;5088555;28;20445;-75
2023/09/24 11:33:12;;;;;;;2.57;1.00;;;;;;;;;;5086921;28;20431;-75
2023/09/24 11:35:40;;;;;;;2.33;1.10;;;;;;;;;;5083884;28;20493;-76
2023/09/24 11:38:09;;;;;;;2.97;1.30;;;;;;;;;;5083531;28;20467;-76
2023/09/24 11:40:38;;;;;;;5.10;1.33;;;;;;;;;;5086880;28;20477;-75
2023/09/24 11:43:08;;;;;;;3.40;0.90;;;;;;;;;;5084680;28;20859;-75
2023/09/24 11:45:53;;;;;;;3.40;1.00;;;;;;;;;;5083524;28;20489;-76
2023/09/24 11:48:26;;;;;;;3.80;1.70;;;;;;;;;;5081744;28;20946;-75
2023/09/24 11:50:54;;;;;;;2.90;1.03;;;;;;;;;;5078599;28;20485;-75
2023/09/24 11:53:26;;;;;;;2.90;1.33;;;;;;;;;;5084855;28;20435;-75
2023/09/24 11:55:56;;;;;;;3.27;1.07;;;;;;;;;;5081242;28;20456;-75
2023/09/24 11:58:26;;;;;;;2.47;0.97;;;;;;;;;;5081933;28;20515;-75
2023/09/24 12:00:53;;;;;;;2.50;1.00;;;;;;;;;;5083809;28;20447;-75
2023/09/24 12:03:21;;;;;;;3.50;1.00;;;;;;;;;;5080143;28;20539;-74
2023/09/24 12:05:49;;;;;;;3.70;1.03;;;;;;;;;;5083599;28;20489;-75
2023/09/24 12:08:16;;;;;;;2.70;1.20;;;;;;;;;;5080897;28;20436;-75
2023/09/24 12:10:46;;;;;;;2.53;1.13;;;;;;;;;;5086815;28;20478;-75
2023/09/24 12:13:14;;;;;;;1.97;0.70;;;;;;;;;;5085920;28;20965;-75
2023/09/24 12:15:41;;;;;;;2.53;1.10;;;;;;;;;;5080968;28;20483;-76
2023/09/24 12:18:09;;;;;;;2.97;0.90;;;;;;;;;;5079844;28;20464;-76
2023/09/24 12:20:37;;;;;;;3.27;1.00;;;;;;;;;;5082722;28;20448;-75
2023/09/24 12:23:10;;;;;;;3.07;1.00;;;;;;;;;;5078765;28;20441;-75
2023/09/24 12:25:37;;;;;;;2.97;1.10;;;;;;;;;;5084293;28;20970;-76
2023/09/24 12:28:06;;;;;;;4.40;1.63;;;;;;;;;;5082547;28;20443;-75
2023/09/24 12:30:34;;;;;;;2.73;1.00;;;;;;;;;;5079617;28;20435;-75
2023/09/24 12:33:01;;;;;;;3.57;1.50;;;;;;;;;;5075208;28;20477;-76
2023/09/24 12:35:29;;;;;;;3.30;0.90;;;;;;;;;;5084665;28;20494;-76
2023/09/24 12:37:56;;;;;;;3.77;1.10;;;;;;;;;;5081561;28;20523;-75
2023/09/24 12:40:24;;;;;;;3.30;0.90;;;;;;;;;;5079709;28;20475;-75
2023/09/24 12:42:52;;;;;;;3.23;1.00;;;;;;;;;;5078461;28;20765;-76
2023/09/24 12:45:23;;;;;;;2.97;1.37;;;;;;;;;;5082709;28;20427;-74
2023/09/24 12:47:51;;;;;;;2.80;1.10;;;;;;;;;;5083677;28;20436;-75
2023/09/24 12:50:18;;;;;;;3.97;1.40;;;;;;;;;;5083538;28;20451;-75
2023/09/24 12:52:46;;;;;;;5.73;1.13;;;;;;;;;;5087344;28;20448;-75
2023/09/24 12:55:16;;;;;;;4.00;1.23;;;;;;;;;;5079972;28;20443;-74
2023/09/24 12:57:44;;;;;;;5.80;1.47;;;;;;;;;;5079256;28;20489;-75
2023/09/24 13:00:12;;;;;;;3.30;1.10;;;;;;;;;;5082353;28;20476;-75
2023/09/24 13:02:42;;;;;;;4.23;1.20;;;;;;;;;;5080850;28;20520;-75
2023/09/24 13:05:12;;;;;;;2.97;1.30;;;;;;;;;;5078486;28;20428;-75
2023/09/24 13:07:40;;;;;;;3.07;1.50;;;;;;;;;;5086759;28;20514;-75
2023/09/24 13:10:08;;;;;;;3.63;1.10;;;;;;;;;;5079733;28;20511;-75
2023/09/24 13:12:35;;;;;;;4.17;1.10;;;;;;;;;;5084290;28;20440;-75
2023/09/24 13:15:04;;;;;;;3.33;1.00;;;;;;;;;;5082499;28;20954;-75
2023/09/24 13:17:32;;;;;;;2.50;1.10;;;;;;;;;;5076755;28;20441;-75
2023/09/24 13:20:01;;;;;;;3.27;1.00;;;;;;;;;;5086374;28;20560;-75
2023/09/24 13:22:28;;;;;;;3.00;0.93;;;;;;;;;;5083427;28;20508;-75
2023/09/24 13:24:55;;;;;;;2.33;0.70;;;;;;;;;;5079855;28;20441;-75
2023/09/24 13:27:23;;;;;;;2.67;0.80;;;;;;;;;;5084498;28;20443;-74
2023/09/24 13:29:50;;;;;;;2.10;0.80;;;;;;;;;;5080407;28;20999;-75
2023/09/24 13:32:18;;;;;;;2.80;1.20;;;;;;;;;;5081139;28;20455;-75
2023/09/24 13:34:46;;;;;;;2.80;1.13;;;;;;;;;;5083906;28;20474;-75
2023/09/24 13:37:15;;;;;;;2.70;1.20;;;;;;;;;;5080139;28;20451;-74
2023/09/24 13:39:42;;;;;;;4.83;1.40;;;;;;;;;;5080695;28;20450;-75
2023/09/24 13:42:09;;;;;;;2.10;0.77;;;;;;;;;;5080132;28;20436;-75
2023/09/24 13:44:37;;;;;;;4.33;1.10;;;;;;;;;;5080652;28;20528;-75
2023/09/24 13:47:04;;;;;;;4.63;1.53;;;;;;;;;;5083801;28;20436;-75
2023/09/24 13:49:32;;;;;;;2.83;0.90;;;;;;;;;;5081272;28;21001;-75
2023/09/24 13:51:59;;;;;;;2.30;0.90;;;;;;;;;;5077102;28;21168;-75
2023/09/24 13:54:27;;;;;;;2.53;1.30;;;;;;;;;;5080735;28;20464;-75
2023/09/24 13:56:55;;;;;;;2.70;0.90;;;;;;;;;;5083254;28;20443;-74
2023/09/24 13:59:22;;;;;;;4.87;1.20;;;;;;;;;;5086453;28;20436;-75
2023/09/24 14:01:49;;;;;;;3.87;1.10;;;;;;;;;;5080388;28;20435;-75
2023/09/24 14:04:16;;;;;;;5.07;2.53;;;;;;;;;;5082574;28;20501;-74
2023/09/24 14:06:44;;;;;;;3.70;1.30;;;;;;;;;;5079709;28;20935;-75
2023/09/24 14:12:21;;;;;;;2.57;0.97;;;;;;;;;;5078694;28;20456;-74
2023/09/24 14:14:54;;;;;;;2.30;0.90;;;;;;;;;;5082610;28;20443;-75
2023/09/24 14:17:21;;;;;;;6.17;1.17;;;;;;;;;;5079372;28;20849;-75
2023/09/24 14:19:49;;;;;;;3.27;1.40;;;;;;;;;;5080898;28;20475;-75
2023/09/24 14:22:17;;;;;;;2.90;1.17;;;;;;;;;;5077333;28;20443;-75
2023/09/24 14:24:49;;;;;;;2.50;1.00;;;;;;;;;;5079339;28;20840;-75
2023/09/24 14:27:17;;;;;;;2.50;1.00;;;;;;;;;;5081006;28;20447;-74
2023/09/24 14:29:45;;;;;;;4.33;1.20;;;;;;;;;;5084491;28;20577;-75
2023/09/24 14:32:13;;;;;;;3.07;1.20;;;;;;;;;;5077301;28;20776;-75
2023/09/24 14:34:42;;;;;;;2.50;0.80;;;;;;;;;;5079422;28;20448;-74
2023/09/24 14:37:10;;;;;;;3.70;0.90;;;;;;;;;;5081184;28;20442;-75
2023/09/24 14:39:38;;;;;;;4.13;2.10;;;;;;;;;;5081574;28;20970;-74
2023/09/24 14:42:10;;;;;;;6.17;1.17;;;;;;;;;;5085309;28;20855;-74
2023/09/24 14:44:42;;;;;;;2.83;0.80;;;;;;;;;;5080700;28;20431;-75
2023/09/24 14:47:13;;;;;;;3.13;1.33;;;;;;;;;;5079931;28;20812;-75
2023/09/24 14:49:48;;;;;;;3.90;1.23;;;;;;;;;;5085104;28;20471;-74
2023/09/24 14:52:20;;;;;;;2.43;1.00;;;;;;;;;;5080282;28;20434;-74
2023/09/24 14:54:49;;;;;;;2.40;1.10;;;;;;;;;;5079039;28;20811;-75
2023/09/24 14:57:21;;;;;;;2.30;1.00;;;;;;;;;;5083099;28;20509;-77
2023/09/24 14:59:49;;;;;;;2.90;1.10;;;;;;;;;;5081515;28;20452;-73